sensor_id;sensor_type;location;lat;lon;timestamp;temperature;humidity
66598;DHT22;57424;53.128;6.406;2024-02-14T00:00:00;11.70;71.10
66598;DHT22;57424;53.128;6.406;2024-02-14T00:02:27;11.70;71.10
66598;DHT22;57424;53.128;6.406;2024-02-14T00:04:53;11.70;71.10
66598;DHT22;57424;53.128;6.406;2024-02-14T00:07:19;11.70;71.20
66598;DHT22;57424;53.128;6.406;2024-02-14T00:09:45;11.70;71.20
66598;DHT22;57424;53.128;6.406;2024-02-14T00:12:10;11.70;71.20
66598;DHT22;57424;53.128;6.406;2024-02-14T00:14:37;11.70;71.20
66598;DHT22;57424;53.128;6.406;2024-02-14T00:17:03;11.70;71.20
66598;DHT22;57424;53.128;6.406;2024-02-14T00:19:29;11.70;71.20
66598;DHT22;57424;53.128;6.406;2024-02-14T00:21:54;11.70;71.30
66598;DHT22;57424;53.128;6.406;2024-02-14T00:24:20;11.70;71.30
66598;DHT22;57424;53.128;6.406;2024-02-14T00:26:46;11.70;71.30
66598;DHT22;57424;53.128;6.406;2024-02-14T00:29:11;11.70;71.40
66598;DHT22;57424;53.128;6.406;2024-02-14T00:31:37;11.70;71.50
66598;DHT22;57424;53.128;6.406;2024-02-14T00:34:03;11.70;71.40
66598;DHT22;57424;53.128;6.406;2024-02-14T00:36:28;11.70;71.40
66598;DHT22;57424;53.128;6.406;2024-02-14T00:38:54;11.70;71.50
66598;DHT22;57424;53.128;6.406;2024-02-14T00:41:20;11.70;71.50
66598;DHT22;57424;53.128;6.406;2024-02-14T00:43:46;11.70;71.50
66598;DHT22;57424;53.128;6.406;2024-02-14T00:46:16;11.70;71.60
66598;DHT22;57424;53.128;6.406;2024-02-14T00:48:42;11.70;71.60
66598;DHT22;57424;53.128;6.406;2024-02-14T00:51:10;11.70;71.60
66598;DHT22;57424;53.128;6.406;2024-02-14T00:53:35;11.60;71.50
66598;DHT22;57424;53.128;6.406;2024-02-14T00:56:01;11.70;71.60
66598;DHT22;57424;53.128;6.406;2024-02-14T00:58:26;11.70;71.60
66598;DHT22;57424;53.128;6.406;2024-02-14T01:00:52;11.70;71.70
66598;DHT22;57424;53.128;6.406;2024-02-14T01:03:17;11.70;71.70
66598;DHT22;57424;53.128;6.406;2024-02-14T01:05:43;11.60;71.70
66598;DHT22;57424;53.128;6.406;2024-02-14T01:08:08;11.70;71.70
66598;DHT22;57424;53.128;6.406;2024-02-14T01:10:34;11.60;71.70
66598;DHT22;57424;53.128;6.406;2024-02-14T01:13:00;11.60;71.80
66598;DHT22;57424;53.128;6.406;2024-02-14T01:15:26;11.60;71.80
66598;DHT22;57424;53.128;6.406;2024-02-14T01:17:51;11.60;71.80
66598;DHT22;57424;53.128;6.406;2024-02-14T01:20:17;11.60;71.90
66598;DHT22;57424;53.128;6.406;2024-02-14T01:22:43;11.60;71.80
66598;DHT22;57424;53.128;6.406;2024-02-14T01:25:11;11.60;71.90
66598;DHT22;57424;53.128;6.406;2024-02-14T01:27:37;11.60;71.80
66598;DHT22;57424;53.128;6.406;2024-02-14T01:30:03;11.60;71.90
66598;DHT22;57424;53.128;6.406;2024-02-14T01:32:30;11.60;71.90
66598;DHT22;57424;53.128;6.406;2024-02-14T01:34:57;11.60;71.90
66598;DHT22;57424;53.128;6.406;2024-02-14T01:37:22;11.60;72.00
66598;DHT22;57424;53.128;6.406;2024-02-14T01:39:48;11.60;72.00
66598;DHT22;57424;53.128;6.406;2024-02-14T01:42:13;11.60;72.10
66598;DHT22;57424;53.128;6.406;2024-02-14T01:44:40;11.60;72.10
66598;DHT22;57424;53.128;6.406;2024-02-14T01:47:05;11.60;72.10
66598;DHT22;57424;53.128;6.406;2024-02-14T01:49:35;11.60;72.20
66598;DHT22;57424;53.128;6.406;2024-02-14T01:52:02;11.60;72.20
66598;DHT22;57424;53.128;6.406;2024-02-14T01:54:31;11.60;72.20
66598;DHT22;57424;53.128;6.406;2024-02-14T01:56:57;11.60;72.20
66598;DHT22;57424;53.128;6.406;2024-02-14T01:59:24;11.60;72.20
66598;DHT22;57424;53.128;6.406;2024-02-14T02:01:50;11.60;72.30
66598;DHT22;57424;53.128;6.406;2024-02-14T02:04:17;11.60;72.30
66598;DHT22;57424;53.128;6.406;2024-02-14T02:06:43;11.60;72.40
66598;DHT22;57424;53.128;6.406;2024-02-14T02:09:09;11.60;72.40
66598;DHT22;57424;53.128;6.406;2024-02-14T02:11:49;11.60;72.50
66598;DHT22;57424;53.128;6.406;2024-02-14T02:14:15;11.60;72.50
66598;DHT22;57424;53.128;6.406;2024-02-14T02:16:42;11.60;72.50
66598;DHT22;57424;53.128;6.406;2024-02-14T02:19:07;11.60;72.50
66598;DHT22;57424;53.128;6.406;2024-02-14T02:21:38;11.60;72.50
66598;DHT22;57424;53.128;6.406;2024-02-14T02:24:07;11.60;72.60
66598;DHT22;57424;53.128;6.406;2024-02-14T02:26:32;11.60;72.70
66598;DHT22;57424;53.128;6.406;2024-02-14T02:28:58;11.60;72.70
66598;DHT22;57424;53.128;6.406;2024-02-14T02:31:25;11.60;72.70
66598;DHT22;57424;53.128;6.406;2024-02-14T02:33:51;11.60;72.80
66598;DHT22;57424;53.128;6.406;2024-02-14T02:36:17;11.60;72.80
66598;DHT22;57424;53.128;6.406;2024-02-14T02:38:43;11.60;72.80
66598;DHT22;57424;53.128;6.406;2024-02-14T02:41:09;11.60;72.80
66598;DHT22;57424;53.128;6.406;2024-02-14T02:43:35;11.60;72.90
66598;DHT22;57424;53.128;6.406;2024-02-14T02:46:01;11.60;72.90
66598;DHT22;57424;53.128;6.406;2024-02-14T02:48:26;11.60;72.90
66598;DHT22;57424;53.128;6.406;2024-02-14T02:50:53;11.60;73.00
66598;DHT22;57424;53.128;6.406;2024-02-14T02:53:19;11.60;73.00
66598;DHT22;57424;53.128;6.406;2024-02-14T02:55:45;11.60;73.10
66598;DHT22;57424;53.128;6.406;2024-02-14T02:58:11;11.60;73.10
66598;DHT22;57424;53.128;6.406;2024-02-14T03:00:37;11.60;73.10
66598;DHT22;57424;53.128;6.406;2024-02-14T03:03:02;11.60;73.10
66598;DHT22;57424;53.128;6.406;2024-02-14T03:05:30;11.60;73.10
66598;DHT22;57424;53.128;6.406;2024-02-14T03:07:59;11.60;73.20
66598;DHT22;57424;53.128;6.406;2024-02-14T03:10:25;11.60;73.20
66598;DHT22;57424;53.128;6.406;2024-02-14T03:12:51;11.60;73.20
66598;DHT22;57424;53.128;6.406;2024-02-14T03:15:18;11.60;73.20
66598;DHT22;57424;53.128;6.406;2024-02-14T03:17:44;11.60;73.30
66598;DHT22;57424;53.128;6.406;2024-02-14T03:20:11;11.60;73.30
66598;DHT22;57424;53.128;6.406;2024-02-14T03:22:40;11.60;73.30
66598;DHT22;57424;53.128;6.406;2024-02-14T03:25:13;11.60;73.30
66598;DHT22;57424;53.128;6.406;2024-02-14T03:27:39;11.60;73.40
66598;DHT22;57424;53.128;6.406;2024-02-14T03:30:06;11.60;73.40
66598;DHT22;57424;53.128;6.406;2024-02-14T03:32:31;11.60;73.40
66598;DHT22;57424;53.128;6.406;2024-02-14T03:34:58;11.60;73.40
66598;DHT22;57424;53.128;6.406;2024-02-14T03:37:24;11.60;73.50
66598;DHT22;57424;53.128;6.406;2024-02-14T03:39:49;11.60;73.50
66598;DHT22;57424;53.128;6.406;2024-02-14T03:42:15;11.60;73.50
66598;DHT22;57424;53.128;6.406;2024-02-14T03:44:42;11.60;73.50
66598;DHT22;57424;53.128;6.406;2024-02-14T03:47:08;11.60;73.60
66598;DHT22;57424;53.128;6.406;2024-02-14T03:49:37;11.60;73.70
66598;DHT22;57424;53.128;6.406;2024-02-14T03:52:02;11.60;73.70
66598;DHT22;57424;53.128;6.406;2024-02-14T03:54:36;11.60;73.60
66598;DHT22;57424;53.128;6.406;2024-02-14T03:57:02;11.60;73.60
66598;DHT22;57424;53.128;6.406;2024-02-14T03:59:30;11.60;73.60
66598;DHT22;57424;53.128;6.406;2024-02-14T04:01:56;11.60;73.70
66598;DHT22;57424;53.128;6.406;2024-02-14T04:04:23;11.60;73.70
66598;DHT22;57424;53.128;6.406;2024-02-14T04:06:49;11.60;73.70
66598;DHT22;57424;53.128;6.406;2024-02-14T04:09:14;11.60;73.80
66598;DHT22;57424;53.128;6.406;2024-02-14T04:11:40;11.60;73.80
66598;DHT22;57424;53.128;6.406;2024-02-14T04:14:06;11.60;73.80
66598;DHT22;57424;53.128;6.406;2024-02-14T04:16:32;11.60;73.90
66598;DHT22;57424;53.128;6.406;2024-02-14T04:18:58;11.60;73.90
66598;DHT22;57424;53.128;6.406;2024-02-14T04:21:23;11.60;73.90
66598;DHT22;57424;53.128;6.406;2024-02-14T04:23:49;11.60;74.00
66598;DHT22;57424;53.128;6.406;2024-02-14T04:26:20;11.60;74.00
66598;DHT22;57424;53.128;6.406;2024-02-14T04:28:45;11.60;74.10
66598;DHT22;57424;53.128;6.406;2024-02-14T04:31:11;11.60;74.10
66598;DHT22;57424;53.128;6.406;2024-02-14T04:33:36;11.60;74.10
66598;DHT22;57424;53.128;6.406;2024-02-14T04:36:02;11.60;74.20
66598;DHT22;57424;53.128;6.406;2024-02-14T04:38:29;11.60;74.20
66598;DHT22;57424;53.128;6.406;2024-02-14T04:40:55;11.70;74.30
66598;DHT22;57424;53.128;6.406;2024-02-14T04:43:22;11.60;74.20
66598;DHT22;57424;53.128;6.406;2024-02-14T04:45:47;11.60;74.30
66598;DHT22;57424;53.128;6.406;2024-02-14T04:48:13;11.70;74.30
66598;DHT22;57424;53.128;6.406;2024-02-14T04:50:39;11.70;74.40
66598;DHT22;57424;53.128;6.406;2024-02-14T04:53:07;11.70;74.40
66598;DHT22;57424;53.128;6.406;2024-02-14T04:55:33;11.60;74.40
66598;DHT22;57424;53.128;6.406;2024-02-14T04:57:59;11.70;74.40
66598;DHT22;57424;53.128;6.406;2024-02-14T05:00:24;11.70;74.50
66598;DHT22;57424;53.128;6.406;2024-02-14T05:02:50;11.70;74.50
66598;DHT22;57424;53.128;6.406;2024-02-14T05:05:16;11.70;74.50
66598;DHT22;57424;53.128;6.406;2024-02-14T05:07:42;11.70;74.50
66598;DHT22;57424;53.128;6.406;2024-02-14T05:10:08;11.70;74.60
66598;DHT22;57424;53.128;6.406;2024-02-14T05:12:33;11.70;74.60
66598;DHT22;57424;53.128;6.406;2024-02-14T05:15:02;11.70;74.60
66598;DHT22;57424;53.128;6.406;2024-02-14T05:17:29;11.70;74.60
66598;DHT22;57424;53.128;6.406;2024-02-14T05:19:55;11.70;74.60
66598;DHT22;57424;53.128;6.406;2024-02-14T05:22:22;11.70;74.60
66598;DHT22;57424;53.128;6.406;2024-02-14T05:24:48;11.70;74.70
66598;DHT22;57424;53.128;6.406;2024-02-14T05:27:13;11.70;74.70
66598;DHT22;57424;53.128;6.406;2024-02-14T05:29:39;11.70;74.70
66598;DHT22;57424;53.128;6.406;2024-02-14T05:32:05;11.70;74.70
66598;DHT22;57424;53.128;6.406;2024-02-14T05:34:31;11.70;74.70
66598;DHT22;57424;53.128;6.406;2024-02-14T05:36:56;11.70;74.70
66598;DHT22;57424;53.128;6.406;2024-02-14T05:39:22;11.70;74.80
66598;DHT22;57424;53.128;6.406;2024-02-14T05:41:47;11.70;74.80
66598;DHT22;57424;53.128;6.406;2024-02-14T05:44:14;11.70;75.50
66598;DHT22;57424;53.128;6.406;2024-02-14T05:46:40;11.70;74.80
66598;DHT22;57424;53.128;6.406;2024-02-14T05:49:06;11.70;74.80
66598;DHT22;57424;53.128;6.406;2024-02-14T05:51:32;11.70;74.80
66598;DHT22;57424;53.128;6.406;2024-02-14T05:53:58;11.70;74.90
66598;DHT22;57424;53.128;6.406;2024-02-14T05:56:23;11.70;74.90
66598;DHT22;57424;53.128;6.406;2024-02-14T05:58:49;11.70;74.90
66598;DHT22;57424;53.128;6.406;2024-02-14T06:01:14;11.70;75.00
66598;DHT22;57424;53.128;6.406;2024-02-14T06:03:43;11.70;75.00
66598;DHT22;57424;53.128;6.406;2024-02-14T06:06:09;11.70;75.00
66598;DHT22;57424;53.128;6.406;2024-02-14T06:08:34;11.70;75.00
66598;DHT22;57424;53.128;6.406;2024-02-14T06:11:00;11.70;75.10
66598;DHT22;57424;53.128;6.406;2024-02-14T06:13:25;11.70;75.10
66598;DHT22;57424;53.128;6.406;2024-02-14T06:15:51;11.80;75.20
66598;DHT22;57424;53.128;6.406;2024-02-14T06:18:16;11.80;75.20
66598;DHT22;57424;53.128;6.406;2024-02-14T06:20:42;11.70;75.20
66598;DHT22;57424;53.128;6.406;2024-02-14T06:23:08;11.80;75.20
66598;DHT22;57424;53.128;6.406;2024-02-14T06:25:33;11.70;75.20
66598;DHT22;57424;53.128;6.406;2024-02-14T06:27:59;11.80;75.30
66598;DHT22;57424;53.128;6.406;2024-02-14T06:30:25;11.80;75.30
66598;DHT22;57424;53.128;6.406;2024-02-14T06:32:50;11.80;75.30
66598;DHT22;57424;53.128;6.406;2024-02-14T06:35:16;11.80;75.30
66598;DHT22;57424;53.128;6.406;2024-02-14T06:37:44;11.80;75.30
66598;DHT22;57424;53.128;6.406;2024-02-14T06:40:10;11.80;75.30
66598;DHT22;57424;53.128;6.406;2024-02-14T06:42:36;11.80;75.40
66598;DHT22;57424;53.128;6.406;2024-02-14T06:45:02;11.90;75.50
66598;DHT22;57424;53.128;6.406;2024-02-14T06:47:28;11.90;75.50
66598;DHT22;57424;53.128;6.406;2024-02-14T06:49:55;11.90;75.50
66598;DHT22;57424;53.128;6.406;2024-02-14T06:52:21;11.90;75.50
66598;DHT22;57424;53.128;6.406;2024-02-14T06:54:47;11.90;75.50
66598;DHT22;57424;53.128;6.406;2024-02-14T06:57:14;11.90;75.60
66598;DHT22;57424;53.128;6.406;2024-02-14T06:59:39;11.90;75.60
66598;DHT22;57424;53.128;6.406;2024-02-14T07:02:05;11.90;75.60
66598;DHT22;57424;53.128;6.406;2024-02-14T07:04:31;11.90;75.60
66598;DHT22;57424;53.128;6.406;2024-02-14T07:06:58;11.90;75.70
66598;DHT22;57424;53.128;6.406;2024-02-14T07:09:23;11.90;75.70
66598;DHT22;57424;53.128;6.406;2024-02-14T07:11:50;12.00;75.70
66598;DHT22;57424;53.128;6.406;2024-02-14T07:14:16;11.90;75.70
66598;DHT22;57424;53.128;6.406;2024-02-14T07:16:41;12.00;75.80
66598;DHT22;57424;53.128;6.406;2024-02-14T07:19:07;12.00;75.80
66598;DHT22;57424;53.128;6.406;2024-02-14T07:21:33;12.00;75.80
66598;DHT22;57424;53.128;6.406;2024-02-14T07:23:58;12.00;75.80
66598;DHT22;57424;53.128;6.406;2024-02-14T07:26:24;12.00;75.90
66598;DHT22;57424;53.128;6.406;2024-02-14T07:28:50;12.00;75.90
66598;DHT22;57424;53.128;6.406;2024-02-14T07:31:15;12.00;75.90
66598;DHT22;57424;53.128;6.406;2024-02-14T07:33:41;12.10;76.00
66598;DHT22;57424;53.128;6.406;2024-02-14T07:36:06;12.10;76.00
66598;DHT22;57424;53.128;6.406;2024-02-14T07:38:32;12.10;76.00
66598;DHT22;57424;53.128;6.406;2024-02-14T07:40:57;12.10;76.00
66598;DHT22;57424;53.128;6.406;2024-02-14T07:43:23;12.10;76.00
66598;DHT22;57424;53.128;6.406;2024-02-14T07:45:48;12.10;76.00
66598;DHT22;57424;53.128;6.406;2024-02-14T07:48:14;12.10;76.10
66598;DHT22;57424;53.128;6.406;2024-02-14T07:50:40;12.10;76.10
66598;DHT22;57424;53.128;6.406;2024-02-14T07:53:05;12.10;76.70
66598;DHT22;57424;53.128;6.406;2024-02-14T07:55:31;12.20;76.10
66598;DHT22;57424;53.128;6.406;2024-02-14T07:57:57;12.20;76.10
66598;DHT22;57424;53.128;6.406;2024-02-14T08:00:24;12.20;76.10
66598;DHT22;57424;53.128;6.406;2024-02-14T08:02:50;12.20;76.10
66598;DHT22;57424;53.128;6.406;2024-02-14T08:05:16;12.20;76.20
66598;DHT22;57424;53.128;6.406;2024-02-14T08:07:42;12.20;76.20
66598;DHT22;57424;53.128;6.406;2024-02-14T08:10:08;12.20;76.20
66598;DHT22;57424;53.128;6.406;2024-02-14T08:12:34;12.20;76.20
66598;DHT22;57424;53.128;6.406;2024-02-14T08:14:59;12.20;76.30
66598;DHT22;57424;53.128;6.406;2024-02-14T08:17:30;12.20;76.30
66598;DHT22;57424;53.128;6.406;2024-02-14T08:19:55;12.30;76.30
66598;DHT22;57424;53.128;6.406;2024-02-14T08:22:21;12.30;76.40
66598;DHT22;57424;53.128;6.406;2024-02-14T08:24:46;12.30;76.40
66598;DHT22;57424;53.128;6.406;2024-02-14T08:27:12;12.30;76.40
66598;DHT22;57424;53.128;6.406;2024-02-14T08:29:37;12.30;76.50
66598;DHT22;57424;53.128;6.406;2024-02-14T08:32:03;12.30;76.50
66598;DHT22;57424;53.128;6.406;2024-02-14T08:34:32;12.30;76.50
66598;DHT22;57424;53.128;6.406;2024-02-14T08:36:58;12.40;76.60
66598;DHT22;57424;53.128;6.406;2024-02-14T08:39:23;12.40;76.60
66598;DHT22;57424;53.128;6.406;2024-02-14T08:41:49;12.40;76.60
66598;DHT22;57424;53.128;6.406;2024-02-14T08:44:15;12.40;76.60
66598;DHT22;57424;53.128;6.406;2024-02-14T08:46:41;12.40;76.70
66598;DHT22;57424;53.128;6.406;2024-02-14T08:49:08;12.40;76.70
66598;DHT22;57424;53.128;6.406;2024-02-14T08:51:37;12.40;76.70
66598;DHT22;57424;53.128;6.406;2024-02-14T08:54:04;12.40;76.70
66598;DHT22;57424;53.128;6.406;2024-02-14T08:56:33;12.50;76.80
66598;DHT22;57424;53.128;6.406;2024-02-14T08:59:03;12.50;76.90
66598;DHT22;57424;53.128;6.406;2024-02-14T09:01:30;12.50;76.90
66598;DHT22;57424;53.128;6.406;2024-02-14T09:03:56;12.50;76.90
66598;DHT22;57424;53.128;6.406;2024-02-14T09:06:21;12.50;76.90
66598;DHT22;57424;53.128;6.406;2024-02-14T09:08:48;12.50;76.90
66598;DHT22;57424;53.128;6.406;2024-02-14T09:11:14;12.50;76.90
66598;DHT22;57424;53.128;6.406;2024-02-14T09:13:39;12.50;77.00
66598;DHT22;57424;53.128;6.406;2024-02-14T09:16:09;12.60;77.10
66598;DHT22;57424;53.128;6.406;2024-02-14T09:18:35;12.60;77.10
66598;DHT22;57424;53.128;6.406;2024-02-14T09:21:01;12.60;77.10
66598;DHT22;57424;53.128;6.406;2024-02-14T09:23:29;12.60;77.10
66598;DHT22;57424;53.128;6.406;2024-02-14T09:25:55;12.60;77.10
66598;DHT22;57424;53.128;6.406;2024-02-14T09:28:22;12.60;77.10
66598;DHT22;57424;53.128;6.406;2024-02-14T09:30:48;12.60;77.10
66598;DHT22;57424;53.128;6.406;2024-02-14T09:33:13;12.70;77.20
66598;DHT22;57424;53.128;6.406;2024-02-14T09:35:40;12.70;77.20
66598;DHT22;57424;53.128;6.406;2024-02-14T09:38:10;12.70;77.20
66598;DHT22;57424;53.128;6.406;2024-02-14T09:40:38;12.70;77.20
66598;DHT22;57424;53.128;6.406;2024-02-14T09:43:12;12.70;77.20
66598;DHT22;57424;53.128;6.406;2024-02-14T09:45:43;12.70;77.30
66598;DHT22;57424;53.128;6.406;2024-02-14T09:48:10;12.70;77.20
66598;DHT22;57424;53.128;6.406;2024-02-14T09:50:38;12.70;77.20
66598;DHT22;57424;53.128;6.406;2024-02-14T09:53:04;12.70;77.30
66598;DHT22;57424;53.128;6.406;2024-02-14T09:55:30;12.80;77.40
66598;DHT22;57424;53.128;6.406;2024-02-14T09:57:56;12.80;77.40
66598;DHT22;57424;53.128;6.406;2024-02-14T10:00:23;12.80;77.40
66598;DHT22;57424;53.128;6.406;2024-02-14T10:02:55;12.80;77.40
66598;DHT22;57424;53.128;6.406;2024-02-14T10:05:21;12.80;78.00
66598;DHT22;57424;53.128;6.406;2024-02-14T10:07:46;12.80;77.40
66598;DHT22;57424;53.128;6.406;2024-02-14T10:10:13;12.80;77.40
66598;DHT22;57424;53.128;6.406;2024-02-14T10:12:39;12.90;77.50
66598;DHT22;57424;53.128;6.406;2024-02-14T10:15:07;12.90;77.50
66598;DHT22;57424;53.128;6.406;2024-02-14T10:17:33;12.90;77.60
66598;DHT22;57424;53.128;6.406;2024-02-14T10:20:00;12.90;77.60
66598;DHT22;57424;53.128;6.406;2024-02-14T10:22:37;12.90;77.60
66598;DHT22;57424;53.128;6.406;2024-02-14T10:25:06;12.90;77.60
66598;DHT22;57424;53.128;6.406;2024-02-14T10:27:38;12.90;77.60
66598;DHT22;57424;53.128;6.406;2024-02-14T10:30:08;12.90;77.60
66598;DHT22;57424;53.128;6.406;2024-02-14T10:32:37;12.90;77.60
66598;DHT22;57424;53.128;6.406;2024-02-14T10:35:04;12.90;77.60
66598;DHT22;57424;53.128;6.406;2024-02-14T10:37:34;12.90;77.60
66598;DHT22;57424;53.128;6.406;2024-02-14T10:40:01;13.00;77.70
66598;DHT22;57424;53.128;6.406;2024-02-14T10:42:28;13.00;77.70
66598;DHT22;57424;53.128;6.406;2024-02-14T10:44:54;13.00;77.50
66598;DHT22;57424;53.128;6.406;2024-02-14T10:47:20;13.00;77.60
66598;DHT22;57424;53.128;6.406;2024-02-14T10:49:50;13.00;77.60
66598;DHT22;57424;53.128;6.406;2024-02-14T10:52:18;13.00;77.60
66598;DHT22;57424;53.128;6.406;2024-02-14T10:54:52;13.00;77.70
66598;DHT22;57424;53.128;6.406;2024-02-14T10:57:19;13.00;77.70
66598;DHT22;57424;53.128;6.406;2024-02-14T10:59:46;13.00;77.70
66598;DHT22;57424;53.128;6.406;2024-02-14T11:02:12;13.00;77.70
66598;DHT22;57424;53.128;6.406;2024-02-14T11:04:38;13.00;77.70
66598;DHT22;57424;53.128;6.406;2024-02-14T11:07:09;13.00;77.80
66598;DHT22;57424;53.128;6.406;2024-02-14T11:09:38;13.00;77.80
66598;DHT22;57424;53.128;6.406;2024-02-14T11:12:09;13.00;77.80
66598;DHT22;57424;53.128;6.406;2024-02-14T11:14:35;13.00;77.80
66598;DHT22;57424;53.128;6.406;2024-02-14T11:17:11;13.00;77.80
66598;DHT22;57424;53.128;6.406;2024-02-14T11:19:37;13.10;77.70
66598;DHT22;57424;53.128;6.406;2024-02-14T11:22:19;13.00;77.70
66598;DHT22;57424;53.128;6.406;2024-02-14T11:24:46;13.10;77.80
66598;DHT22;57424;53.128;6.406;2024-02-14T11:27:12;13.10;77.80
66598;DHT22;57424;53.128;6.406;2024-02-14T11:29:51;13.10;77.80
66598;DHT22;57424;53.128;6.406;2024-02-14T11:32:17;13.10;77.80
66598;DHT22;57424;53.128;6.406;2024-02-14T11:34:44;13.10;77.80
66598;DHT22;57424;53.128;6.406;2024-02-14T11:37:19;13.10;78.50
66598;DHT22;57424;53.128;6.406;2024-02-14T11:39:46;13.10;77.80
66598;DHT22;57424;53.128;6.406;2024-02-14T11:42:12;13.10;77.80
66598;DHT22;57424;53.128;6.406;2024-02-14T11:44:40;13.10;77.80
66598;DHT22;57424;53.128;6.406;2024-02-14T11:47:09;13.10;77.90
66598;DHT22;57424;53.128;6.406;2024-02-14T11:49:35;13.10;77.90
66598;DHT22;57424;53.128;6.406;2024-02-14T11:52:01;13.10;77.90
66598;DHT22;57424;53.128;6.406;2024-02-14T11:54:29;13.20;77.90
66598;DHT22;57424;53.128;6.406;2024-02-14T11:56:54;13.20;77.90
66598;DHT22;57424;53.128;6.406;2024-02-14T11:59:20;13.20;77.90
66598;DHT22;57424;53.128;6.406;2024-02-14T12:01:48;13.20;77.90
66598;DHT22;57424;53.128;6.406;2024-02-14T12:04:17;13.20;77.90
66598;DHT22;57424;53.128;6.406;2024-02-14T12:06:43;13.20;77.90
66598;DHT22;57424;53.128;6.406;2024-02-14T12:09:09;13.20;77.90
66598;DHT22;57424;53.128;6.406;2024-02-14T12:11:38;13.20;77.90
66598;DHT22;57424;53.128;6.406;2024-02-14T12:14:06;13.20;77.90
66598;DHT22;57424;53.128;6.406;2024-02-14T12:16:36;13.20;77.90
66598;DHT22;57424;53.128;6.406;2024-02-14T12:19:08;13.20;77.90
66598;DHT22;57424;53.128;6.406;2024-02-14T12:21:38;13.30;77.90
66598;DHT22;57424;53.128;6.406;2024-02-14T12:24:07;13.30;78.00
66598;DHT22;57424;53.128;6.406;2024-02-14T12:26:33;13.30;77.90
66598;DHT22;57424;53.128;6.406;2024-02-14T12:29:02;13.30;77.90
66598;DHT22;57424;53.128;6.406;2024-02-14T12:31:29;13.30;77.90
66598;DHT22;57424;53.128;6.406;2024-02-14T12:33:59;13.30;77.90
66598;DHT22;57424;53.128;6.406;2024-02-14T12:36:36;13.30;77.80
66598;DHT22;57424;53.128;6.406;2024-02-14T12:39:02;13.30;77.80
66598;DHT22;57424;53.128;6.406;2024-02-14T12:41:28;13.30;77.80
66598;DHT22;57424;53.128;6.406;2024-02-14T12:43:58;13.30;77.80
66598;DHT22;57424;53.128;6.406;2024-02-14T12:46:24;13.30;77.80
66598;DHT22;57424;53.128;6.406;2024-02-14T12:48:50;13.40;77.90
66598;DHT22;57424;53.128;6.406;2024-02-14T12:51:16;13.30;77.80
66598;DHT22;57424;53.128;6.406;2024-02-14T12:53:41;13.30;77.80
66598;DHT22;57424;53.128;6.406;2024-02-14T12:56:07;13.40;77.90
66598;DHT22;57424;53.128;6.406;2024-02-14T12:58:33;13.40;77.80
66598;DHT22;57424;53.128;6.406;2024-02-14T13:01:02;13.40;77.80
66598;DHT22;57424;53.128;6.406;2024-02-14T13:03:32;13.30;77.70
66598;DHT22;57424;53.128;6.406;2024-02-14T13:05:58;13.40;77.80
66598;DHT22;57424;53.128;6.406;2024-02-14T13:08:24;13.40;77.70
66598;DHT22;57424;53.128;6.406;2024-02-14T13:10:49;13.30;77.60
66598;DHT22;57424;53.128;6.406;2024-02-14T13:13:15;13.40;77.70
66598;DHT22;57424;53.128;6.406;2024-02-14T13:15:41;13.40;77.70
66598;DHT22;57424;53.128;6.406;2024-02-14T13:18:08;13.40;77.80
66598;DHT22;57424;53.128;6.406;2024-02-14T13:20:36;13.40;77.80
66598;DHT22;57424;53.128;6.406;2024-02-14T13:23:02;13.40;77.70
66598;DHT22;57424;53.128;6.406;2024-02-14T13:25:28;13.40;77.70
66598;DHT22;57424;53.128;6.406;2024-02-14T13:27:54;13.40;77.80
66598;DHT22;57424;53.128;6.406;2024-02-14T13:30:20;13.40;77.80
66598;DHT22;57424;53.128;6.406;2024-02-14T13:32:47;13.40;77.80
66598;DHT22;57424;53.128;6.406;2024-02-14T13:35:12;13.40;77.80
66598;DHT22;57424;53.128;6.406;2024-02-14T13:37:39;13.40;77.80
66598;DHT22;57424;53.128;6.406;2024-02-14T13:40:07;13.40;77.80
66598;DHT22;57424;53.128;6.406;2024-02-14T13:42:36;13.40;77.80
66598;DHT22;57424;53.128;6.406;2024-02-14T13:45:04;13.40;77.80
66598;DHT22;57424;53.128;6.406;2024-02-14T13:47:31;13.40;77.80
66598;DHT22;57424;53.128;6.406;2024-02-14T13:49:56;13.40;77.80
66598;DHT22;57424;53.128;6.406;2024-02-14T13:52:22;13.40;77.80
66598;DHT22;57424;53.128;6.406;2024-02-14T13:54:48;13.40;77.90
66598;DHT22;57424;53.128;6.406;2024-02-14T13:57:13;13.40;77.90
66598;DHT22;57424;53.128;6.406;2024-02-14T13:59:39;13.40;77.90
66598;DHT22;57424;53.128;6.406;2024-02-14T14:02:07;13.40;77.90
66598;DHT22;57424;53.128;6.406;2024-02-14T14:04:34;13.40;77.90
66598;DHT22;57424;53.128;6.406;2024-02-14T14:07:01;13.40;77.90
66598;DHT22;57424;53.128;6.406;2024-02-14T14:09:29;13.40;77.90
66598;DHT22;57424;53.128;6.406;2024-02-14T14:11:57;13.50;78.00
66598;DHT22;57424;53.128;6.406;2024-02-14T14:14:23;13.40;77.80
66598;DHT22;57424;53.128;6.406;2024-02-14T14:16:52;13.40;77.90
66598;DHT22;57424;53.128;6.406;2024-02-14T14:19:18;13.40;77.90
66598;DHT22;57424;53.128;6.406;2024-02-14T14:21:44;13.50;78.00
66598;DHT22;57424;53.128;6.406;2024-02-14T14:24:09;13.50;78.00
66598;DHT22;57424;53.128;6.406;2024-02-14T14:26:35;13.50;78.00
66598;DHT22;57424;53.128;6.406;2024-02-14T14:29:01;13.50;78.00
66598;DHT22;57424;53.128;6.406;2024-02-14T14:31:27;13.50;78.00
66598;DHT22;57424;53.128;6.406;2024-02-14T14:33:54;13.50;78.10
66598;DHT22;57424;53.128;6.406;2024-02-14T14:36:20;13.50;78.10
66598;DHT22;57424;53.128;6.406;2024-02-14T14:38:46;13.40;78.10
66598;DHT22;57424;53.128;6.406;2024-02-14T14:41:12;13.50;78.10
66598;DHT22;57424;53.128;6.406;2024-02-14T14:43:37;13.50;78.20
66598;DHT22;57424;53.128;6.406;2024-02-14T14:46:05;13.50;78.10
66598;DHT22;57424;53.128;6.406;2024-02-14T14:48:30;13.50;78.20
66598;DHT22;57424;53.128;6.406;2024-02-14T14:50:56;13.50;78.10
66598;DHT22;57424;53.128;6.406;2024-02-14T14:53:21;13.50;78.20
66598;DHT22;57424;53.128;6.406;2024-02-14T14:55:56;13.50;78.10
66598;DHT22;57424;53.128;6.406;2024-02-14T14:58:23;13.50;78.20
66598;DHT22;57424;53.128;6.406;2024-02-14T15:01:07;13.50;78.20
66598;DHT22;57424;53.128;6.406;2024-02-14T15:03:34;13.50;78.40
66598;DHT22;57424;53.128;6.406;2024-02-14T15:06:00;13.50;78.20
66598;DHT22;57424;53.128;6.406;2024-02-14T15:08:26;13.60;78.20
66598;DHT22;57424;53.128;6.406;2024-02-14T15:10:53;13.50;78.20
66598;DHT22;57424;53.128;6.406;2024-02-14T15:13:21;13.50;78.20
66598;DHT22;57424;53.128;6.406;2024-02-14T15:15:47;13.50;78.20
66598;DHT22;57424;53.128;6.406;2024-02-14T15:18:12;13.50;78.30
66598;DHT22;57424;53.128;6.406;2024-02-14T15:20:38;13.50;78.30
66598;DHT22;57424;53.128;6.406;2024-02-14T15:23:04;13.50;78.30
66598;DHT22;57424;53.128;6.406;2024-02-14T15:25:32;13.50;78.40